sensor_id;sensor_type;location;lat;lon;timestamp;P1;durP1;ratioP1;P2;durP2;ratioP2
19621;SDS011;9958;33.196;-97.114;2023-02-26T00:01:39;11.32;;;4.03;;
19621;SDS011;9958;33.196;-97.114;2023-02-26T00:04:08;11.60;;;4.60;;
19621;SDS011;9958;33.196;-97.114;2023-02-26T00:06:37;11.25;;;4.20;;
19621;SDS011;9958;33.196;-97.114;2023-02-26T00:09:16;10.55;;;4.70;;
19621;SDS011;9958;33.196;-97.114;2023-02-26T00:11:47;14.35;;;4.43;;
19621;SDS011;9958;33.196;-97.114;2023-02-26T00:14:16;7.80;;;4.47;;
19621;SDS011;9958;33.196;-97.114;2023-02-26T00:16:45;11.68;;;4.20;;
19621;SDS011;9958;33.196;-97.114;2023-02-26T00:19:18;12.25;;;4.50;;
19621;SDS011;9958;33.196;-97.114;2023-02-26T00:21:46;10.73;;;4.82;;
19621;SDS011;9958;33.196;-97.114;2023-02-26T00:24:15;10.50;;;4.15;;
19621;SDS011;9958;33.196;-97.114;2023-02-26T00:26:49;6.28;;;3.83;;
19621;SDS011;9958;33.196;-97.114;2023-02-26T00:29:17;13.35;;;4.47;;
19621;SDS011;9958;33.196;-97.114;2023-02-26T00:31:46;14.43;;;5.03;;
19621;SDS011;9958;33.196;-97.114;2023-02-26T00:34:15;10.77;;;4.53;;
19621;SDS011;9958;33.196;-97.114;2023-02-26T00:36:44;12.30;;;4.03;;
19621;SDS011;9958;33.196;-97.114;2023-02-26T00:39:22;8.80;;;4.03;;
19621;SDS011;9958;33.196;-97.114;2023-02-26T00:42:02;9.25;;;4.00;;
19621;SDS011;9958;33.196;-97.114;2023-02-26T00:44:31;10.85;;;4.28;;
19621;SDS011;9958;33.196;-97.114;2023-02-26T00:47:02;10.40;;;4.20;;
19621;SDS011;9958;33.196;-97.114;2023-02-26T00:49:41;8.70;;;3.80;;
19621;SDS011;9958;33.196;-97.114;2023-02-26T00:52:19;11.20;;;4.15;;
19621;SDS011;9958;33.196;-97.114;2023-02-26T00:54:53;13.90;;;4.97;;
19621;SDS011;9958;33.196;-97.114;2023-02-26T00:57:29;17.60;;;5.75;;
19621;SDS011;9958;33.196;-97.114;2023-02-26T00:59:57;9.52;;;4.55;;
19621;SDS011;9958;33.196;-97.114;2023-02-26T01:02:26;14.63;;;4.78;;
19621;SDS011;9958;33.196;-97.114;2023-02-26T01:04:54;11.10;;;4.60;;
19621;SDS011;9958;33.196;-97.114;2023-02-26T01:07:24;12.02;;;4.82;;
19621;SDS011;9958;33.196;-97.114;2023-02-26T01:09:54;13.98;;;4.93;;
19621;SDS011;9958;33.196;-97.114;2023-02-26T01:12:25;10.25;;;4.22;;
19621;SDS011;9958;33.196;-97.114;2023-02-26T01:14:53;12.80;;;4.95;;
19621;SDS011;9958;33.196;-97.114;2023-02-26T01:17:23;12.88;;;5.07;;
19621;SDS011;9958;33.196;-97.114;2023-02-26T01:19:56;14.55;;;5.00;;
19621;SDS011;9958;33.196;-97.114;2023-02-26T01:22:30;17.73;;;5.68;;
19621;SDS011;9958;33.196;-97.114;2023-02-26T01:25:04;14.60;;;5.43;;
19621;SDS011;9958;33.196;-97.114;2023-02-26T01:27:38;10.95;;;4.40;;
19621;SDS011;9958;33.196;-97.114;2023-02-26T01:30:09;13.52;;;4.68;;
19621;SDS011;9958;33.196;-97.114;2023-02-26T01:32:41;13.45;;;5.15;;
19621;SDS011;9958;33.196;-97.114;2023-02-26T01:35:14;13.80;;;5.72;;
19621;SDS011;9958;33.196;-97.114;2023-02-26T01:37:56;20.85;;;5.32;;
19621;SDS011;9958;33.196;-97.114;2023-02-26T01:40:54;14.13;;;5.43;;
19621;SDS011;9958;33.196;-97.114;2023-02-26T01:43:58;11.30;;;4.65;;
19621;SDS011;9958;33.196;-97.114;2023-02-26T01:46:42;9.75;;;5.22;;
19621;SDS011;9958;33.196;-97.114;2023-02-26T01:49:23;13.52;;;5.40;;
19621;SDS011;9958;33.196;-97.114;2023-02-26T01:51:53;15.73;;;5.85;;
19621;SDS011;9958;33.196;-97.114;2023-02-26T01:54:23;16.67;;;5.45;;
19621;SDS011;9958;33.196;-97.114;2023-02-26T01:56:55;8.95;;;5.03;;
19621;SDS011;9958;33.196;-97.114;2023-02-26T01:59:31;8.30;;;4.13;;
19621;SDS011;9958;33.196;-97.114;2023-02-26T02:02:01;13.10;;;4.43;;
19621;SDS011;9958;33.196;-97.114;2023-02-26T02:04:32;12.98;;;5.85;;
19621;SDS011;9958;33.196;-97.114;2023-02-26T02:07:02;10.98;;;5.28;;
19621;SDS011;9958;33.196;-97.114;2023-02-26T02:09:31;15.50;;;5.75;;
19621;SDS011;9958;33.196;-97.114;2023-02-26T02:12:05;13.10;;;5.35;;
19621;SDS011;9958;33.196;-97.114;2023-02-26T02:14:45;10.70;;;5.35;;
19621;SDS011;9958;33.196;-97.114;2023-02-26T02:17:23;16.60;;;4.88;;
19621;SDS011;9958;33.196;-97.114;2023-02-26T02:20:25;15.73;;;5.85;;
19621;SDS011;9958;33.196;-97.114;2023-02-26T02:23:10;5.82;;;4.10;;
19621;SDS011;9958;33.196;-97.114;2023-02-26T02:32:05;15.98;;;5.38;;
19621;SDS011;9958;33.196;-97.114;2023-02-26T02:34:37;11.82;;;5.25;;
19621;SDS011;9958;33.196;-97.114;2023-02-26T02:37:13;15.05;;;5.63;;
19621;SDS011;9958;33.196;-97.114;2023-02-26T02:39:46;14.40;;;4.72;;
19621;SDS011;9958;33.196;-97.114;2023-02-26T02:42:19;12.32;;;5.47;;
19621;SDS011;9958;33.196;-97.114;2023-02-26T02:44:54;10.00;;;4.90;;
19621;SDS011;9958;33.196;-97.114;2023-02-26T02:47:26;11.48;;;4.65;;
19621;SDS011;9958;33.196;-97.114;2023-02-26T02:50:00;14.10;;;5.20;;
19621;SDS011;9958;33.196;-97.114;2023-02-26T02:52:35;7.93;;;4.95;;
19621;SDS011;9958;33.196;-97.114;2023-02-26T02:55:08;15.35;;;5.18;;
19621;SDS011;9958;33.196;-97.114;2023-02-26T02:57:41;10.43;;;4.35;;
19621;SDS011;9958;33.196;-97.114;2023-02-26T03:00:14;14.73;;;5.25;;
19621;SDS011;9958;33.196;-97.114;2023-02-26T03:02:49;12.23;;;5.22;;
19621;SDS011;9958;33.196;-97.114;2023-02-26T03:05:23;12.80;;;5.55;;
19621;SDS011;9958;33.196;-97.114;2023-02-26T03:07:53;16.27;;;5.50;;
19621;SDS011;9958;33.196;-97.114;2023-02-26T03:10:25;13.30;;;5.22;;
19621;SDS011;9958;33.196;-97.114;2023-02-26T03:12:54;8.27;;;4.47;;
19621;SDS011;9958;33.196;-97.114;2023-02-26T03:15:25;12.77;;;4.88;;
19621;SDS011;9958;33.196;-97.114;2023-02-26T03:18:08;13.70;;;5.70;;
19621;SDS011;9958;33.196;-97.114;2023-02-26T03:20:55;11.07;;;5.20;;
19621;SDS011;9958;33.196;-97.114;2023-02-26T03:23:30;16.00;;;4.78;;
19621;SDS011;9958;33.196;-97.114;2023-02-26T03:26:05;13.90;;;4.93;;
19621;SDS011;9958;33.196;-97.114;2023-02-26T03:28:39;7.72;;;5.00;;
19621;SDS011;9958;33.196;-97.114;2023-02-26T03:31:14;12.05;;;5.20;;
19621;SDS011;9958;33.196;-97.114;2023-02-26T03:33:51;17.38;;;5.90;;
19621;SDS011;9958;33.196;-97.114;2023-02-26T03:36:24;8.07;;;5.60;;
19621;SDS011;9958;33.196;-97.114;2023-02-26T03:38:57;14.90;;;5.63;;
19621;SDS011;9958;33.196;-97.114;2023-02-26T03:41:32;12.27;;;4.95;;
19621;SDS011;9958;33.196;-97.114;2023-02-26T03:44:06;12.63;;;5.57;;
19621;SDS011;9958;33.196;-97.114;2023-02-26T03:46:41;10.73;;;4.90;;
19621;SDS011;9958;33.196;-97.114;2023-02-26T03:49:16;10.15;;;5.18;;
19621;SDS011;9958;33.196;-97.114;2023-02-26T03:51:50;10.82;;;4.72;;
19621;SDS011;9958;33.196;-97.114;2023-02-26T03:54:20;11.93;;;4.55;;
19621;SDS011;9958;33.196;-97.114;2023-02-26T03:56:52;14.40;;;5.80;;
19621;SDS011;9958;33.196;-97.114;2023-02-26T03:59:21;12.57;;;4.80;;
19621;SDS011;9958;33.196;-97.114;2023-02-26T04:01:50;9.77;;;4.53;;
19621;SDS011;9958;33.196;-97.114;2023-02-26T04:04:24;14.30;;;5.65;;
19621;SDS011;9958;33.196;-97.114;2023-02-26T04:06:54;13.93;;;4.97;;
19621;SDS011;9958;33.196;-97.114;2023-02-26T04:09:23;11.98;;;5.05;;
19621;SDS011;9958;33.196;-97.114;2023-02-26T04:11:52;13.18;;;6.05;;
19621;SDS011;9958;33.196;-97.114;2023-02-26T04:14:22;11.27;;;5.03;;
19621;SDS011;9958;33.196;-97.114;2023-02-26T04:16:51;14.82;;;5.55;;
19621;SDS011;9958;33.196;-97.114;2023-02-26T04:19:19;10.13;;;5.18;;
19621;SDS011;9958;33.196;-97.114;2023-02-26T04:21:49;17.05;;;6.25;;
19621;SDS011;9958;33.196;-97.114;2023-02-26T04:24:17;12.73;;;5.65;;
19621;SDS011;9958;33.196;-97.114;2023-02-26T04:26:46;11.38;;;5.75;;
19621;SDS011;9958;33.196;-97.114;2023-02-26T04:29:14;9.98;;;5.22;;
19621;SDS011;9958;33.196;-97.114;2023-02-26T04:31:42;14.00;;;6.13;;
19621;SDS011;9958;33.196;-97.114;2023-02-26T04:34:11;15.13;;;5.10;;
19621;SDS011;9958;33.196;-97.114;2023-02-26T04:36:39;18.50;;;5.82;;
19621;SDS011;9958;33.196;-97.114;2023-02-26T04:39:09;12.23;;;5.20;;
19621;SDS011;9958;33.196;-97.114;2023-02-26T04:41:38;12.20;;;6.43;;
19621;SDS011;9958;33.196;-97.114;2023-02-26T04:44:06;11.95;;;4.60;;
19621;SDS011;9958;33.196;-97.114;2023-02-26T04:46:34;12.35;;;4.90;;
19621;SDS011;9958;33.196;-97.114;2023-02-26T04:49:03;12.95;;;4.90;;
19621;SDS011;9958;33.196;-97.114;2023-02-26T04:51:31;21.10;;;5.60;;
19621;SDS011;9958;33.196;-97.114;2023-02-26T04:53:59;14.63;;;5.65;;
19621;SDS011;9958;33.196;-97.114;2023-02-26T04:56:29;16.90;;;6.38;;
19621;SDS011;9958;33.196;-97.114;2023-02-26T04:58:58;16.45;;;5.22;;
19621;SDS011;9958;33.196;-97.114;2023-02-26T05:01:26;21.30;;;6.88;;
19621;SDS011;9958;33.196;-97.114;2023-02-26T05:03:54;11.98;;;5.07;;
19621;SDS011;9958;33.196;-97.114;2023-02-26T05:06:23;18.17;;;6.00;;
19621;SDS011;9958;33.196;-97.114;2023-02-26T05:08:51;13.27;;;5.68;;
19621;SDS011;9958;33.196;-97.114;2023-02-26T05:11:19;13.93;;;5.85;;
19621;SDS011;9958;33.196;-97.114;2023-02-26T05:13:49;13.80;;;5.30;;
19621;SDS011;9958;33.196;-97.114;2023-02-26T05:16:18;14.15;;;5.75;;
19621;SDS011;9958;33.196;-97.114;2023-02-26T05:18:46;14.93;;;5.15;;
19621;SDS011;9958;33.196;-97.114;2023-02-26T05:21:14;15.70;;;5.70;;
19621;SDS011;9958;33.196;-97.114;2023-02-26T05:23:42;12.68;;;5.35;;
19621;SDS011;9958;33.196;-97.114;2023-02-26T05:26:11;13.25;;;6.15;;
19621;SDS011;9958;33.196;-97.114;2023-02-26T05:28:39;11.38;;;5.40;;
19621;SDS011;9958;33.196;-97.114;2023-02-26T05:31:11;18.17;;;6.95;;
19621;SDS011;9958;33.196;-97.114;2023-02-26T05:33:40;16.38;;;5.53;;
19621;SDS011;9958;33.196;-97.114;2023-02-26T05:36:09;17.35;;;5.85;;
19621;SDS011;9958;33.196;-97.114;2023-02-26T05:38:37;16.63;;;7.32;;
19621;SDS011;9958;33.196;-97.114;2023-02-26T05:41:06;12.05;;;5.75;;
19621;SDS011;9958;33.196;-97.114;2023-02-26T05:43:34;13.57;;;5.63;;
19621;SDS011;9958;33.196;-97.114;2023-02-26T05:46:04;14.07;;;5.15;;
19621;SDS011;9958;33.196;-97.114;2023-02-26T05:48:33;18.42;;;6.57;;
19621;SDS011;9958;33.196;-97.114;2023-02-26T05:51:02;22.75;;;6.15;;
19621;SDS011;9958;33.196;-97.114;2023-02-26T05:53:30;16.88;;;6.20;;
19621;SDS011;9958;33.196;-97.114;2023-02-26T05:55:59;19.08;;;5.53;;
19621;SDS011;9958;33.196;-97.114;2023-02-26T05:58:27;17.00;;;6.53;;
19621;SDS011;9958;33.196;-97.114;2023-02-26T06:00:58;22.70;;;8.27;;
19621;SDS011;9958;33.196;-97.114;2023-02-26T06:03:27;25.80;;;7.18;;
19621;SDS011;9958;33.196;-97.114;2023-02-26T06:05:57;20.63;;;6.95;;
19621;SDS011;9958;33.196;-97.114;2023-02-26T06:08:25;14.45;;;6.45;;
19621;SDS011;9958;33.196;-97.114;2023-02-26T06:10:53;14.25;;;7.00;;
19621;SDS011;9958;33.196;-97.114;2023-02-26T06:13:21;18.63;;;6.30;;
19621;SDS011;9958;33.196;-97.114;2023-02-26T06:15:50;12.98;;;6.10;;
19621;SDS011;9958;33.196;-97.114;2023-02-26T06:18:18;15.57;;;5.97;;
19621;SDS011;9958;33.196;-97.114;2023-02-26T06:20:46;19.80;;;7.03;;
19621;SDS011;9958;33.196;-97.114;2023-02-26T06:23:16;16.08;;;6.00;;
19621;SDS011;9958;33.196;-97.114;2023-02-26T06:25:45;18.63;;;5.32;;
19621;SDS011;9958;33.196;-97.114;2023-02-26T06:28:13;16.80;;;6.05;;
19621;SDS011;9958;33.196;-97.114;2023-02-26T06:30:41;18.40;;;6.43;;
19621;SDS011;9958;33.196;-97.114;2023-02-26T06:33:10;18.88;;;5.97;;
19621;SDS011;9958;33.196;-97.114;2023-02-26T06:35:38;11.93;;;6.03;;
19621;SDS011;9958;33.196;-97.114;2023-02-26T06:38:07;16.15;;;6.30;;
19621;SDS011;9958;33.196;-97.114;2023-02-26T06:40:37;14.75;;;6.43;;
19621;SDS011;9958;33.196;-97.114;2023-02-26T06:43:05;21.08;;;6.40;;
19621;SDS011;9958;33.196;-97.114;2023-02-26T06:45:34;18.38;;;7.57;;
19621;SDS011;9958;33.196;-97.114;2023-02-26T06:48:02;21.05;;;8.48;;
19621;SDS011;9958;33.196;-97.114;2023-02-26T06:50:30;32.17;;;7.15;;
19621;SDS011;9958;33.196;-97.114;2023-02-26T06:52:59;24.63;;;7.10;;
19621;SDS011;9958;33.196;-97.114;2023-02-26T06:55:27;22.05;;;8.02;;
19621;SDS011;9958;33.196;-97.114;2023-02-26T06:57:57;21.35;;;8.55;;
19621;SDS011;9958;33.196;-97.114;2023-02-26T07:00:25;22.00;;;6.43;;
19621;SDS011;9958;33.196;-97.114;2023-02-26T07:02:54;18.08;;;6.75;;
19621;SDS011;9958;33.196;-97.114;2023-02-26T07:05:22;16.20;;;6.55;;
19621;SDS011;9958;33.196;-97.114;2023-02-26T07:07:51;19.65;;;7.72;;
19621;SDS011;9958;33.196;-97.114;2023-02-26T07:10:19;13.50;;;6.25;;
19621;SDS011;9958;33.196;-97.114;2023-02-26T07:12:49;18.52;;;7.15;;
19621;SDS011;9958;33.196;-97.114;2023-02-26T07:15:19;22.27;;;8.02;;
19621;SDS011;9958;33.196;-97.114;2023-02-26T07:17:47;22.30;;;8.55;;
19621;SDS011;9958;33.196;-97.114;2023-02-26T07:20:16;24.33;;;9.13;;
19621;SDS011;9958;33.196;-97.114;2023-02-26T07:22:44;21.60;;;7.82;;
19621;SDS011;9958;33.196;-97.114;2023-02-26T07:25:13;24.33;;;7.30;;
19621;SDS011;9958;33.196;-97.114;2023-02-26T07:27:41;17.60;;;7.28;;
19621;SDS011;9958;33.196;-97.114;2023-02-26T07:30:10;14.95;;;6.60;;
19621;SDS011;9958;33.196;-97.114;2023-02-26T07:32:41;20.92;;;7.32;;
19621;SDS011;9958;33.196;-97.114;2023-02-26T07:35:09;31.15;;;8.40;;
19621;SDS011;9958;33.196;-97.114;2023-02-26T07:37:37;23.60;;;7.43;;
19621;SDS011;9958;33.196;-97.114;2023-02-26T07:40:06;24.95;;;7.32;;
19621;SDS011;9958;33.196;-97.114;2023-02-26T07:42:36;29.35;;;7.72;;
19621;SDS011;9958;33.196;-97.114;2023-02-26T07:45:05;18.70;;;7.22;;
19621;SDS011;9958;33.196;-97.114;2023-02-26T07:47:34;21.88;;;8.02;;
19621;SDS011;9958;33.196;-97.114;2023-02-26T07:50:05;21.83;;;7.93;;
19621;SDS011;9958;33.196;-97.114;2023-02-26T07:52:35;28.67;;;7.78;;
19621;SDS011;9958;33.196;-97.114;2023-02-26T07:55:03;22.73;;;7.60;;
19621;SDS011;9958;33.196;-97.114;2023-02-26T07:57:32;24.55;;;8.48;;
19621;SDS011;9958;33.196;-97.114;2023-02-26T08:00:01;21.60;;;8.63;;
19621;SDS011;9958;33.196;-97.114;2023-02-26T08:02:31;25.63;;;9.23;;
19621;SDS011;9958;33.196;-97.114;2023-02-26T08:04:59;32.38;;;9.13;;
19621;SDS011;9958;33.196;-97.114;2023-02-26T08:07:29;20.75;;;7.75;;
19621;SDS011;9958;33.196;-97.114;2023-02-26T08:09:57;25.75;;;8.75;;
19621;SDS011;9958;33.196;-97.114;2023-02-26T08:12:26;28.02;;;9.15;;
19621;SDS011;9958;33.196;-97.114;2023-02-26T08:14:54;36.92;;;9.70;;
19621;SDS011;9958;33.196;-97.114;2023-02-26T08:17:23;26.13;;;8.25;;
19621;SDS011;9958;33.196;-97.114;2023-02-26T08:19:51;25.00;;;8.13;;
19621;SDS011;9958;33.196;-97.114;2023-02-26T08:22:19;26.58;;;8.05;;
19621;SDS011;9958;33.196;-97.114;2023-02-26T08:24:49;29.88;;;9.23;;
19621;SDS011;9958;33.196;-97.114;2023-02-26T08:27:18;30.95;;;8.75;;
19621;SDS011;9958;33.196;-97.114;2023-02-26T08:29:46;29.23;;;8.57;;
19621;SDS011;9958;33.196;-97.114;2023-02-26T08:32:15;19.02;;;8.05;;
19621;SDS011;9958;33.196;-97.114;2023-02-26T08:34:44;22.65;;;7.28;;
19621;SDS011;9958;33.196;-97.114;2023-02-26T08:37:13;22.70;;;7.60;;
19621;SDS011;9958;33.196;-97.114;2023-02-26T08:39:41;21.15;;;8.55;;
19621;SDS011;9958;33.196;-97.114;2023-02-26T08:42:11;23.85;;;9.05;;
19621;SDS011;9958;33.196;-97.114;2023-02-26T08:44:40;17.75;;;7.72;;
19621;SDS011;9958;33.196;-97.114;2023-02-26T08:47:09;29.25;;;8.93;;
19621;SDS011;9958;33.196;-97.114;2023-02-26T08:49:37;17.42;;;7.63;;
19621;SDS011;9958;33.196;-97.114;2023-02-26T08:52:05;26.70;;;7.88;;
19621;SDS011;9958;33.196;-97.114;2023-02-26T08:54:34;26.52;;;8.43;;
19621;SDS011;9958;33.196;-97.114;2023-02-26T08:57:02;24.55;;;8.73;;
19621;SDS011;9958;33.196;-97.114;2023-02-26T08:59:32;26.27;;;8.52;;
19621;SDS011;9958;33.196;-97.114;2023-02-26T09:02:00;26.20;;;8.50;;
19621;SDS011;9958;33.196;-97.114;2023-02-26T09:04:29;20.38;;;8.30;;
19621;SDS011;9958;33.196;-97.114;2023-02-26T09:06:57;24.85;;;8.57;;
19621;SDS011;9958;33.196;-97.114;2023-02-26T09:09:25;23.33;;;7.82;;
19621;SDS011;9958;33.196;-97.114;2023-02-26T09:11:54;21.65;;;6.97;;
19621;SDS011;9958;33.196;-97.114;2023-02-26T09:14:23;23.77;;;8.27;;
19621;SDS011;9958;33.196;-97.114;2023-02-26T09:16:53;18.63;;;7.20;;
19621;SDS011;9958;33.196;-97.114;2023-02-26T09:19:21;22.85;;;7.63;;
19621;SDS011;9958;33.196;-97.114;2023-02-26T09:21:50;25.08;;;8.57;;
19621;SDS011;9958;33.196;-97.114;2023-02-26T09:24:18;19.63;;;7.68;;
19621;SDS011;9958;33.196;-97.114;2023-02-26T09:26:46;20.88;;;7.30;;
19621;SDS011;9958;33.196;-97.114;2023-02-26T09:29:14;26.90;;;7.80;;
19621;SDS011;9958;33.196;-97.114;2023-02-26T09:31:43;25.55;;;8.63;;
19621;SDS011;9958;33.196;-97.114;2023-02-26T09:34:13;24.65;;;8.93;;
19621;SDS011;9958;33.196;-97.114;2023-02-26T09:36:41;34.15;;;9.38;;
19621;SDS011;9958;33.196;-97.114;2023-02-26T09:39:11;22.85;;;7.32;;
19621;SDS011;9958;33.196;-97.114;2023-02-26T09:41:40;25.27;;;9.23;;
19621;SDS011;9958;33.196;-97.114;2023-02-26T09:44:14;26.15;;;8.82;;
19621;SDS011;9958;33.196;-97.114;2023-02-26T09:46:47;21.65;;;8.27;;
19621;SDS011;9958;33.196;-97.114;2023-02-26T09:49:25;31.45;;;8.05;;
19621;SDS011;9958;33.196;-97.114;2023-02-26T09:52:10;33.08;;;9.70;;
19621;SDS011;9958;33.196;-97.114;2023-02-26T09:54:45;42.15;;;10.63;;
19621;SDS011;9958;33.196;-97.114;2023-02-26T09:57:19;34.22;;;9.45;;
19621;SDS011;9958;33.196;-97.114;2023-02-26T09:59:52;34.90;;;9.35;;
19621;SDS011;9958;33.196;-97.114;2023-02-26T10:02:23;27.52;;;9.50;;
19621;SDS011;9958;33.196;-97.114;2023-02-26T10:05:07;27.92;;;9.13;;
19621;SDS011;9958;33.196;-97.114;2023-02-26T10:07:46;30.90;;;9.45;;
19621;SDS011;9958;33.196;-97.114;2023-02-26T10:10:23;29.30;;;9.10;;
19621;SDS011;9958;33.196;-97.114;2023-02-26T10:12:59;35.35;;;9.35;;
19621;SDS011;9958;33.196;-97.114;2023-02-26T10:15:28;27.20;;;9.82;;
19621;SDS011;9958;33.196;-97.114;2023-02-26T10:18:03;25.73;;;8.52;;
19621;SDS011;9958;33.196;-97.114;2023-02-26T10:20:38;28.08;;;8.18;;
19621;SDS011;9958;33.196;-97.114;2023-02-26T10:23:16;31.10;;;8.93;;
19621;SDS011;9958;33.196;-97.114;2023-02-26T10:25:52;33.92;;;9.50;;
19621;SDS011;9958;33.196;-97.114;2023-02-26T10:31:17;35.38;;;10.07;;
19621;SDS011;9958;33.196;-97.114;2023-02-26T10:33:55;27.48;;;8.20;;
19621;SDS011;9958;33.196;-97.114;2023-02-26T10:36:36;26.95;;;8.50;;
19621;SDS011;9958;33.196;-97.114;2023-02-26T10:39:14;32.90;;;9.82;;
19621;SDS011;9958;33.196;-97.114;2023-02-26T10:41:49;26.52;;;9.30;;
19621;SDS011;9958;33.196;-97.114;2023-02-26T10:44:21;26.70;;;9.57;;
19621;SDS011;9958;33.196;-97.114;2023-02-26T10:46:55;31.67;;;9.55;;
19621;SDS011;9958;33.196;-97.114;2023-02-26T10:49:34;23.58;;;8.55;;
19621;SDS011;9958;33.196;-97.114;2023-02-26T10:52:22;33.40;;;10.48;;
19621;SDS011;9958;33.196;-97.114;2023-02-26T10:55:03;26.63;;;9.73;;
19621;SDS011;9958;33.196;-97.114;2023-02-26T10:57:54;23.60;;;8.65;;
19621;SDS011;9958;33.196;-97.114;2023-02-26T11:00:28;27.67;;;9.23;;
19621;SDS011;9958;33.196;-97.114;2023-02-26T11:02:59;28.00;;;8.27;;
19621;SDS011;9958;33.196;-97.114;2023-02-26T11:05:30;32.50;;;9.27;;
19621;SDS011;9958;33.196;-97.114;2023-02-26T11:08:02;25.50;;;7.75;;
19621;SDS011;9958;33.196;-97.114;2023-02-26T11:10:40;34.95;;;8.88;;
19621;SDS011;9958;33.196;-97.114;2023-02-26T11:13:13;29.42;;;9.63;;
19621;SDS011;9958;33.196;-97.114;2023-02-26T11:15:42;28.23;;;9.75;;
19621;SDS011;9958;33.196;-97.114;2023-02-26T11:18:12;28.20;;;9.35;;
19621;SDS011;9958;33.196;-97.114;2023-02-26T11:20:47;21.83;;;7.20;;
19621;SDS011;9958;33.196;-97.114;2023-02-26T11:23:20;27.52;;;9.15;;
19621;SDS011;9958;33.196;-97.114;2023-02-26T11:25:53;24.38;;;8.73;;
19621;SDS011;9958;33.196;-97.114;2023-02-26T11:28:29;27.75;;;9.10;;
19621;SDS011;9958;33.196;-97.114;2023-02-26T11:31:01;34.25;;;9.65;;
19621;SDS011;9958;33.196;-97.114;2023-02-26T11:33:35;28.45;;;8.23;;
19621;SDS011;9958;33.196;-97.114;2023-02-26T11:36:07;29.58;;;8.82;;
19621;SDS011;9958;33.196;-97.114;2023-02-26T11:38:39;29.88;;;8.93;;
19621;SDS011;9958;33.196;-97.114;2023-02-26T11:41:10;22.98;;;8.10;;
19621;SDS011;9958;33.196;-97.114;2023-02-26T11:43:41;32.25;;;9.43;;
19621;SDS011;9958;33.196;-97.114;2023-02-26T11:46:11;27.20;;;9.25;;
19621;SDS011;9958;33.196;-97.114;2023-02-26T11:48:40;31.70;;;10.05;;
19621;SDS011;9958;33.196;-97.114;2023-02-26T11:51:11;25.30;;;8.85;;
19621;SDS011;9958;33.196;-97.114;2023-02-26T11:53:43;24.65;;;8.60;;
19621;SDS011;9958;33.196;-97.114;2023-02-26T11:56:21;26.02;;;8.45;;
19621;SDS011;9958;33.196;-97.114;2023-02-26T11:58:52;28.05;;;8.90;;
19621;SDS011;9958;33.196;-97.114;2023-02-26T12:01:22;21.52;;;8.50;;
19621;SDS011;9958;33.196;-97.114;2023-02-26T12:03:57;23.65;;;9.20;;
19621;SDS011;9958;33.196;-97.114;2023-02-26T12:06:28;26.10;;;8.98;;
19621;SDS011;9958;33.196;-97.114;2023-02-26T12:08:58;21.02;;;7.72;;
19621;SDS011;9958;33.196;-97.114;2023-02-26T12:14:26;29.10;;;9.38;;
19621;SDS011;9958;33.196;-97.114;2023-02-26T12:17:10;22.65;;;8.77;;
19621;SDS011;9958;33.196;-97.114;2023-02-26T12:19:51;27.85;;;8.50;;
19621;SDS011;9958;33.196;-97.114;2023-02-26T12:22:30;24.45;;;8.68;;
19621;SDS011;9958;33.196;-97.114;2023-02-26T12:25:20;24.60;;;8.95;;
19621;SDS011;9958;33.196;-97.114;2023-02-26T12:28:11;25.08;;;8.60;;
19621;SDS011;9958;33.196;-97.114;2023-02-26T12:31:00;28.02;;;8.63;;
19621;SDS011;9958;33.196;-97.114;2023-02-26T12:33:52;28.42;;;8.32;;
19621;SDS011;9958;33.196;-97.114;2023-02-26T12:36:34;24.40;;;7.70;;
19621;SDS011;9958;33.196;-97.114;2023-02-26T12:39:16;28.52;;;9.57;;
19621;SDS011;9958;33.196;-97.114;2023-02-26T12:42:12;23.23;;;8.95;;
19621;SDS011;9958;33.196;-97.114;2023-02-26T12:45:10;21.27;;;7.93;;
19621;SDS011;9958;33.196;-97.114;2023-02-26T12:47:49;20.23;;;8.25;;
19621;SDS011;9958;33.196;-97.114;2023-02-26T12:50:33;22.20;;;8.20;;
19621;SDS011;9958;33.196;-97.114;2023-02-26T12:56:20;24.42;;;7.97;;
19621;SDS011;9958;33.196;-97.114;2023-02-26T12:59:14;22.60;;;9.07;;
19621;SDS011;9958;33.196;-97.114;2023-02-26T13:05:16;25.92;;;9.13;;
19621;SDS011;9958;33.196;-97.114;2023-02-26T13:08:06;25.30;;;8.85;;
19621;SDS011;9958;33.196;-97.114;2023-02-26T13:10:44;25.55;;;9.93;;
19621;SDS011;9958;33.196;-97.114;2023-02-26T13:13:26;32.50;;;9.95;;
19621;SDS011;9958;33.196;-97.114;2023-02-26T13:16:12;23.98;;;9.35;;
19621;SDS011;9958;33.196;-97.114;2023-02-26T13:18:54;27.10;;;8.93;;
19621;SDS011;9958;33.196;-97.114;2023-02-26T13:21:30;20.15;;;8.60;;
19621;SDS011;9958;33.196;-97.114;2023-02-26T13:24:01;21.80;;;8.60;;
19621;SDS011;9958;33.196;-97.114;2023-02-26T13:26:34;24.13;;;9.55;;
19621;SDS011;9958;33.196;-97.114;2023-02-26T13:29:03;20.15;;;9.40;;
19621;SDS011;9958;33.196;-97.114;2023-02-26T13:31:40;22.27;;;9.35;;
19621;SDS011;9958;33.196;-97.114;2023-02-26T13:34:12;26.27;;;9.95;;
19621;SDS011;9958;33.196;-97.114;2023-02-26T13:36:45;27.38;;;10.73;;
19621;SDS011;9958;33.196;-97.114;2023-02-26T13:39:26;34.58;;;11.13;;
19621;SDS011;9958;33.196;-97.114;2023-02-26T13:42:05;22.58;;;10.30;;
19621;SDS011;9958;33.196;-97.114;2023-02-26T13:44:46;22.75;;;8.73;;
19621;SDS011;9958;33.196;-97.114;2023-02-26T13:47:30;24.52;;;8.35;;
19621;SDS011;9958;33.196;-97.114;2023-02-26T13:50:16;29.55;;;10.23;;
19621;SDS011;9958;33.196;-97.114;2023-02-26T13:52:53;34.55;;;11.38;;
19621;SDS011;9958;33.196;-97.114;2023-02-26T13:55:35;30.02;;;9.63;;
19621;SDS011;9958;33.196;-97.114;2023-02-26T13:58:17;28.38;;;9.93;;
19621;SDS011;9958;33.196;-97.114;2023-02-26T14:00:57;27.45;;;9.40;;
19621;SDS011;9958;33.196;-97.114;2023-02-26T14:03:33;26.58;;;9.63;;
19621;SDS011;9958;33.196;-97.114;2023-02-26T14:12:03;27.10;;;9.30;;
19621;SDS011;9958;33.196;-97.114;2023-02-26T14:18:01;29.85;;;10.18;;
19621;SDS011;9958;33.196;-97.114;2023-02-26T14:20:35;26.20;;;10.63;;
19621;SDS011;9958;33.196;-97.114;2023-02-26T14:23:17;27.50;;;9.85;;
19621;SDS011;9958;33.196;-97.114;2023-02-26T14:26:09;32.53;;;10.38;;
19621;SDS011;9958;33.196;-97.114;2023-02-26T14:28:43;30.83;;;9.77;;
19621;SDS011;9958;33.196;-97.114;2023-02-26T14:31:22;27.15;;;10.57;;
19621;SDS011;9958;33.196;-97.114;2023-02-26T14:33:59;28.52;;;9.93;;
19621;SDS011;9958;33.196;-97.114;2023-02-26T14:36:43;34.70;;;10.57;;
19621;SDS011;9958;33.196;-97.114;2023-02-26T14:39:22;27.52;;;10.68;;
19621;SDS011;9958;33.196;-97.114;2023-02-26T14:41:56;31.33;;;10.35;;
19621;SDS011;9958;33.196;-97.114;2023-02-26T14:44:30;32.88;;;10.13;;
19621;SDS011;9958;33.196;-97.114;2023-02-26T14:47:02;39.42;;;10.45;;
19621;SDS011;9958;33.196;-97.114;2023-02-26T14:49:32;29.08;;;9.20;;
19621;SDS011;9958;33.196;-97.114;2023-02-26T14:52:09;27.95;;;8.93;;
19621;SDS011;9958;33.196;-97.114;2023-02-26T14:55:19;33.63;;;10.40;;
19621;SDS011;9958;33.196;-97.114;2023-02-26T14:58:02;25.30;;;9.77;;
19621;SDS011;9958;33.196;-97.114;2023-02-26T15:00:40;31.50;;;8.45;;
19621;SDS011;9958;33.196;-97.114;2023-02-26T15:03:26;26.67;;;9.05;;
19621;SDS011;9958;33.196;-97.114;2023-02-26T15:06:15;29.38;;;10.32;;
19621;SDS011;9958;33.196;-97.114;2023-02-26T15:09:01;31.70;;;9.00;;
19621;SDS011;9958;33.196;-97.114;2023-02-26T15:17:32;29.42;;;9.48;;
19621;SDS011;9958;33.196;-97.114;2023-02-26T15:20:13;26.92;;;9.15;;
19621;SDS011;9958;33.196;-97.114;2023-02-26T15:23:00;32.88;;;9.55;;
19621;SDS011;9958;33.196;-97.114;2023-02-26T15:25:40;30.33;;;9.23;;
19621;SDS011;9958;33.196;-97.114;2023-02-26T15:28:10;32.42;;;10.52;;
19621;SDS011;9958;33.196;-97.114;2023-02-26T15:30:50;36.05;;;10.13;;